Time;durP1;ratioP1;P1;durP2;ratioP2;P2;SDS_P1;SDS_P2;PMS_P1;PMS_P2;Temp;Humidity;BMP_temperature;BMP_pressure;BME280_temperature;BME280_humidity;BME280_pressure;Samples;Min_cycle;Max_cycle;Signal;HPM_P1;HPM_P2
2021/07/12 00:02:21;;;;;;;12.82;5.53;;;;;;;15.99;76.46;97145.36;1821548;77;26011;-83
2021/07/12 00:04:47;;;;;;;7.53;4.78;;;;;;;16.00;76.50;97137.48;1821682;77;25774;-82
2021/07/12 00:07:14;;;;;;;10.78;5.47;;;;;;;16.00;76.46;97134.76;1821595;78;25591;-82
2021/07/12 00:09:41;;;;;;;12.75;5.67;;;;;;;15.99;76.37;97135.83;1821677;77;25738;-82
2021/07/12 00:12:07;;;;;;;9.98;5.80;;;;;;;16.00;76.39;97119.78;1821633;77;27543;-82
2021/07/12 00:14:34;;;;;;;8.25;5.92;;;;;;;15.99;76.33;97124.94;1821518;77;25754;-83
2021/07/12 00:17:01;;;;;;;7.90;5.72;;;;;;;15.95;76.30;97119.70;1818073;78;25721;-84
2021/07/12 00:19:27;;;;;;;6.45;5.12;;;;;;;15.91;76.28;97122.66;1820954;78;25752;-83
2021/07/12 00:21:54;;;;;;;10.48;5.78;;;;;;;15.88;76.32;97110.91;1821752;78;25714;-83
2021/07/12 00:24:20;;;;;;;8.18;5.12;;;;;;;15.80;76.09;97116.80;1821429;77;27517;-83
2021/07/12 00:26:48;;;;;;;9.10;5.50;;;;;;;15.73;76.33;97110.16;1821573;77;25673;-83
2021/07/12 00:29:15;;;;;;;6.45;5.35;;;;;;;15.74;76.43;97100.10;1821550;77;25403;-83
2021/07/12 00:31:42;;;;;;;8.90;5.35;;;;;;;15.69;76.29;97104.95;1821631;78;25661;-83
2021/07/12 00:34:08;;;;;;;7.83;5.72;;;;;;;15.54;76.40;97108.78;1821337;78;25711;-84
2021/07/12 00:36:35;;;;;;;9.50;5.67;;;;;;;15.49;76.76;97104.08;1821589;78;27542;-84
2021/07/12 00:39:01;;;;;;;5.55;4.95;;;;;;;15.48;76.85;97109.23;1821293;78;25905;-84
2021/07/12 00:41:28;;;;;;;5.55;4.90;;;;;;;15.53;77.08;97107.66;1821557;78;25802;-84
2021/07/12 00:43:54;;;;;;;6.00;5.17;;;;;;;15.58;77.14;97105.06;1821722;78;25703;-83
2021/07/12 00:46:21;;;;;;;10.00;5.08;;;;;;;15.63;77.13;97098.31;1821755;78;25661;-83
2021/07/12 00:48:48;;;;;;;7.80;4.72;;;;;;;15.68;77.06;97099.77;1821724;78;27553;-82
2021/07/12 00:51:15;;;;;;;10.25;5.17;;;;;;;15.70;77.05;97108.47;1821495;78;25732;-83
2021/07/12 00:53:42;;;;;;;9.75;6.10;;;;;;;15.61;76.94;97110.80;1821390;77;25716;-83
2021/07/12 00:56:09;;;;;;;8.68;5.12;;;;;;;15.67;77.15;97112.55;1821422;77;25691;-83
2021/07/12 00:58:36;;;;;;;11.70;5.90;;;;;;;15.78;77.13;97109.42;1821551;78;25707;-84
2021/07/12 01:01:05;;;;;;;9.05;5.67;;;;;;;15.86;77.02;97115.78;1821673;78;27429;-84
2021/07/12 01:03:32;;;;;;;10.00;5.65;;;;;;;15.79;76.87;97116.52;1821383;78;25739;-83
2021/07/12 01:06:00;;;;;;;10.13;5.92;;;;;;;15.78;77.01;97123.03;1821821;78;25694;-82
2021/07/12 01:08:27;;;;;;;11.30;5.95;;;;;;;15.80;77.14;97116.80;1821689;78;25676;-84
2021/07/12 01:11:33;;;;;;;9.68;5.90;;;;;;;15.82;77.15;97117.34;1821800;77;25724;-83
2021/07/12 01:14:20;;;;;;;10.08;5.83;;;;;;;15.77;77.01;97120.02;1820951;78;27605;-84
2021/07/12 01:17:01;;;;;;;9.98;6.00;;;;;;;15.73;77.01;97118.33;1820771;77;25881;-82
2021/07/12 01:20:08;;;;;;;6.95;5.17;;;;;;;15.70;77.05;97107.11;1821432;78;25729;-83
2021/07/12 01:23:04;;;;;;;10.45;5.80;;;;;;;15.68;77.04;97106.56;1821193;78;25728;-82
2021/07/12 01:26:05;;;;;;;6.37;5.60;;;;;;;15.65;77.09;97105.70;1819021;78;25672;-82
2021/07/12 01:29:08;;;;;;;6.55;5.78;;;;;;;15.62;77.21;97100.22;1780851;79;27529;-82
2021/07/12 01:31:58;;;;;;;9.78;6.08;;;;;;;15.59;77.11;97103.97;1821283;78;25894;-83
2021/07/12 01:34:41;;;;;;;7.35;6.20;;;;;;;15.53;77.18;97100.87;1812974;77;25745;-82
2021/07/12 01:37:48;;;;;;;9.63;6.65;;;;;;;15.46;77.07;97105.11;1812909;77;26151;-83
2021/07/12 01:40:22;;;;;;;13.20;6.83;;;;;;;15.33;77.02;97113.10;1791005;78;25660;-82
2021/07/12 01:43:23;;;;;;;8.83;6.53;;;;;;;15.25;77.41;97108.06;1812368;79;26823;-82
2021/07/12 01:46:21;;;;;;;6.75;5.70;;;;;;;15.29;77.50;97102.42;1812868;78;25701;-82
2021/07/12 01:49:14;;;;;;;7.70;5.10;;;;;;;15.32;77.54;97107.38;1812898;78;25594;-83
2021/07/12 01:52:16;;;;;;;12.43;5.60;;;;;;;15.36;77.50;97108.50;1813219;77;25706;-83
2021/07/12 01:55:20;;;;;;;9.13;5.30;;;;;;;15.37;77.45;97106.08;1787031;79;25728;-83
2021/07/12 01:58:03;;;;;;;10.48;5.08;;;;;;;15.41;77.49;97105.88;1812833;79;27369;-83
2021/07/12 02:00:31;;;;;;;6.05;4.92;;;;;;;15.44;77.46;97107.28;1812921;79;25755;-83
2021/07/12 02:02:59;;;;;;;7.60;5.45;;;;;;;15.46;77.46;97102.38;1812782;77;25661;-84
2021/07/12 02:05:30;;;;;;;7.08;5.47;;;;;;;15.46;77.49;97100.48;1812804;78;25763;-84
2021/07/12 02:07:58;;;;;;;15.13;5.92;;;;;;;15.48;77.41;97101.07;1812920;77;25867;-83
2021/07/12 02:10:30;;;;;;;6.37;5.22;;;;;;;15.49;77.43;97099.17;1812697;79;27602;-83
2021/07/12 02:12:59;;;;;;;14.63;6.15;;;;;;;15.47;77.43;97098.06;1788975;78;25757;-84
2021/07/12 02:15:27;;;;;;;7.70;5.92;;;;;;;15.41;77.41;97096.89;1807136;77;25718;-84
2021/07/12 02:17:54;;;;;;;12.43;5.80;;;;;;;15.37;77.54;97097.09;1796164;77;25683;-83
2021/07/12 02:20:25;;;;;;;11.95;6.03;;;;;;;15.33;77.54;97105.48;1807298;78;25248;-83
2021/07/12 02:22:54;;;;;;;10.38;6.60;;;;;;;15.24;77.65;97106.95;1813036;79;27416;-85
2021/07/12 02:25:22;;;;;;;10.63;6.80;;;;;;;15.18;77.81;97097.91;1812700;79;26021;-82
2021/07/12 02:27:50;;;;;;;9.05;6.53;;;;;;;15.24;78.02;97087.91;1812970;79;25211;-82
2021/07/12 02:30:18;;;;;;;10.23;7.08;;;;;;;15.29;78.09;97088.83;1812767;77;26286;-83
2021/07/12 02:32:47;;;;;;;10.90;6.85;;;;;;;15.33;78.08;97093.23;1813802;77;25680;-83
2021/07/12 02:35:16;;;;;;;6.65;5.85;;;;;;;15.30;78.02;97088.30;1821281;78;27388;-83
2021/07/12 02:37:46;;;;;;;7.05;6.00;;;;;;;15.29;78.13;97087.47;1821397;77;25752;-83
2021/07/12 02:40:18;;;;;;;7.95;6.65;;;;;;;15.31;78.14;97089.41;1821635;77;25731;-83
2021/07/12 02:42:49;;;;;;;8.20;6.17;;;;;;;15.34;78.16;97097.05;1821579;78;25465;-82
2021/07/12 02:45:18;;;;;;;6.83;5.80;;;;;;;15.38;78.16;97095.48;1821574;78;25731;-82
2021/07/12 02:47:45;;;;;;;10.38;6.78;;;;;;;15.37;78.18;97097.91;1821457;78;28394;-84
2021/07/12 02:50:15;;;;;;;7.35;5.65;;;;;;;15.37;78.18;97096.55;1821421;77;26244;-83
2021/07/12 02:52:56;;;;;;;14.85;6.28;;;;;;;15.38;78.16;97096.02;1821305;78;25756;-83
2021/07/12 02:55:23;;;;;;;9.43;5.85;;;;;;;15.38;78.08;97091.94;1821155;78;25411;-83
2021/07/12 02:57:49;;;;;;;7.67;6.33;;;;;;;15.37;78.06;97094.37;1821735;77;25601;-82
2021/07/12 03:00:17;;;;;;;8.13;6.22;;;;;;;15.33;77.96;97089.16;1821392;77;27571;-82
2021/07/12 03:02:43;;;;;;;11.43;6.42;;;;;;;15.28;77.97;97098.05;1821407;77;25756;-83
2021/07/12 03:05:11;;;;;;;12.65;6.35;;;;;;;15.24;78.09;97094.17;1821305;78;26385;-83
2021/07/12 03:08:01;;;;;;;13.28;6.65;;;;;;;15.24;78.12;97099.61;1821617;77;25619;-83
2021/07/12 03:10:30;;;;;;;10.68;6.35;;;;;;;15.22;78.16;97099.03;1821478;78;25641;-82
2021/07/12 03:13:01;;;;;;;11.48;6.97;;;;;;;15.23;78.21;97107.48;1821564;77;28337;-82
2021/07/12 03:15:44;;;;;;;11.33;5.90;;;;;;;15.23;78.17;97104.76;1821364;78;25830;-82
2021/07/12 03:18:30;;;;;;;11.83;6.25;;;;;;;15.22;78.17;97102.28;1821492;77;25845;-83
2021/07/12 03:21:04;;;;;;;9.48;6.60;;;;;;;15.20;78.20;97108.00;1821351;78;26158;-83
2021/07/12 03:23:44;;;;;;;11.00;6.37;;;;;;;15.21;78.24;97104.21;1821532;78;25745;-82
2021/07/12 03:26:12;;;;;;;8.85;6.35;;;;;;;15.24;78.29;97105.59;1801736;78;28245;-82
2021/07/12 03:28:40;;;;;;;10.98;6.65;;;;;;;15.23;78.29;97107.48;1818622;78;26026;-83
2021/07/12 03:31:09;;;;;;;8.35;6.10;;;;;;;15.24;78.29;97107.77;1818182;78;25634;-83
2021/07/12 03:33:38;;;;;;;7.22;6.28;;;;;;;15.25;78.37;97109.42;1820122;78;25888;-84
2021/07/12 03:36:05;;;;;;;12.18;7.22;;;;;;;15.28;78.49;97114.38;1821300;78;25722;-82
2021/07/12 03:38:33;;;;;;;8.50;6.08;;;;;;;15.32;78.52;97107.38;1821207;78;28272;-82
2021/07/12 03:41:01;;;;;;;11.83;6.97;;;;;;;15.35;78.56;97104.13;1804761;78;25827;-84
2021/07/12 03:43:28;;;;;;;9.70;6.78;;;;;;;15.36;78.57;97105.78;1802260;78;26285;-84
2021/07/12 03:46:00;;;;;;;8.35;6.50;;;;;;;15.37;78.63;97101.99;1805975;78;25762;-84
2021/07/12 03:48:36;;;;;;;6.95;5.92;;;;;;;15.36;78.59;97091.36;1792784;77;26402;-84
2021/07/12 03:51:05;;;;;;;7.22;6.53;;;;;;;15.40;78.75;97088.44;1805315;78;27371;-83
2021/07/12 03:53:33;;;;;;;12.82;7.03;;;;;;;15.43;78.78;97088.77;1792707;78;25866;-84
2021/07/12 03:56:02;;;;;;;13.40;7.20;;;;;;;15.46;78.85;97085.53;1805847;78;25823;-85
2021/07/12 03:58:29;;;;;;;8.95;6.53;;;;;;;15.49;78.90;97083.67;1792767;78;25795;-83
2021/07/12 04:00:56;;;;;;;10.70;6.90;;;;;;;15.55;78.91;97085.16;1808486;78;25239;-85
2021/07/12 04:03:22;;;;;;;8.75;7.00;;;;;;;15.58;78.98;97080.58;1807108;78;27482;-84
2021/07/12 04:05:49;;;;;;;12.00;7.53;;;;;;;15.61;79.01;97090.94;1798234;78;25635;-84
2021/07/12 04:08:15;;;;;;;10.03;7.35;;;;;;;15.67;79.06;97092.67;1801480;78;25684;-83
2021/07/12 04:10:42;;;;;;;11.75;7.20;;;;;;;15.72;79.06;97095.44;1803971;78;26343;-84
2021/07/12 04:13:09;;;;;;;10.15;7.50;;;;;;;15.76;79.07;97094.70;1806298;77;25741;-83
2021/07/12 04:15:35;;;;;;;9.85;6.85;;;;;;;15.81;79.04;97091.23;1792764;78;27601;-83
2021/07/12 04:18:02;;;;;;;13.00;7.40;;;;;;;15.81;79.14;97088.52;1806029;77;25444;-85
2021/07/12 04:20:29;;;;;;;11.05;8.00;;;;;;;15.86;79.22;97091.28;1792751;78;25234;-83
2021/07/12 04:22:56;;;;;;;14.78;7.80;;;;;;;15.95;79.29;97093.84;1808360;78;25728;-84
2021/07/12 04:25:23;;;;;;;11.60;8.08;;;;;;;16.02;79.27;97104.56;1800111;78;25617;-83
2021/07/12 04:27:49;;;;;;;11.88;8.53;;;;;;;16.08;79.32;97108.98;1796157;78;27495;-84
2021/07/12 04:30:17;;;;;;;12.68;7.80;;;;;;;16.15;79.40;97109.09;1788961;78;25704;-82
2021/07/12 04:32:44;;;;;;;12.65;7.72;;;;;;;16.21;79.28;97118.13;1816215;77;25770;-85
2021/07/12 04:35:14;;;;;;;11.08;7.85;;;;;;;16.28;79.32;97119.31;1798250;78;25707;-86
2021/07/12 04:37:42;;;;;;;10.03;7.85;;;;;;;16.33;79.30;97118.81;1813095;78;25737;-84
2021/07/12 04:40:10;;;;;;;9.65;7.45;;;;;;;16.38;79.34;97116.16;1812989;77;28214;-85
2021/07/12 04:42:36;;;;;;;14.05;8.78;;;;;;;16.48;79.42;97122.27;1812870;77;26408;-84
2021/07/12 04:45:05;;;;;;;11.68;8.45;;;;;;;16.52;79.47;97117.42;1812885;77;26522;-86
2021/07/12 04:47:31;;;;;;;13.55;8.38;;;;;;;16.62;79.60;97116.73;1812907;77;25657;-85
2021/07/12 04:49:58;;;;;;;10.78;8.63;;;;;;;16.68;79.50;97111.60;1812933;77;25657;-86
2021/07/12 04:52:25;;;;;;;12.53;8.88;;;;;;;16.74;79.54;97106.50;1813037;77;28363;-86
2021/07/12 04:54:51;;;;;;;12.93;8.78;;;;;;;16.81;79.68;97104.37;1782418;78;25708;-85
2021/07/12 04:57:18;;;;;;;12.37;9.15;;;;;;;16.90;79.73;97104.75;1812717;77;26052;-88
2021/07/12 04:59:44;;;;;;;10.05;9.05;;;;;;;16.99;79.76;97095.55;1812906;78;26318;-86
2021/07/12 05:02:15;;;;;;;10.30;8.98;;;;;;;17.05;79.80;97090.41;1812914;79;25706;-86
2021/07/12 05:04:41;;;;;;;11.83;10.43;;;;;;;17.12;79.87;97086.94;1812908;77;27341;-86
2021/07/12 05:07:10;;;;;;;15.38;9.80;;;;;;;17.18;79.91;97089.42;1812785;78;25748;-86
2021/07/12 05:09:37;;;;;;;15.70;9.05;;;;;;;17.25;79.93;97087.86;1813110;79;25748;-85
2021/07/12 05:12:08;;;;;;;12.70;9.73;;;;;;;17.30;79.83;97079.70;1812966;79;25735;-87
2021/07/12 05:14:33;;;;;;;13.25;9.83;;;;;;;17.34;79.95;97089.01;1813215;77;25647;-85
2021/07/12 05:17:00;;;;;;;11.35;9.38;;;;;;;17.40;80.08;97087.94;1812813;79;27512;-85
2021/07/12 05:19:26;;;;;;;14.78;9.20;;;;;;;17.47;80.11;97088.55;1791774;79;25681;-89
2021/07/12 05:21:53;;;;;;;13.05;9.35;;;;;;;17.56;80.12;97094.33;1811442;77;25753;-84
2021/07/12 05:24:20;;;;;;;14.18;10.25;;;;;;;17.63;80.09;97094.41;1812845;77;26389;-89
2021/07/12 05:26:46;;;;;;;11.83;9.33;;;;;;;17.71;80.12;97099.10;1812998;79;25649;-85
2021/07/12 05:29:13;;;;;;;10.55;9.45;;;;;;;17.78;80.05;97105.96;1812873;79;27584;-91
2021/07/12 05:31:39;;;;;;;11.53;10.32;;;;;;;17.84;80.07;97106.83;1812752;77;25776;-86
2021/07/12 05:34:06;;;;;;;11.75;9.98;;;;;;;17.89;79.84;97106.29;1815021;78;26299;-86
2021/07/12 05:36:32;;;;;;;12.03;9.75;;;;;;;17.97;79.53;97111.81;1820173;78;26209;-85
2021/07/12 05:38:59;;;;;;;10.75;9.50;;;;;;;18.03;79.28;97119.47;1821250;78;25712;-85
2021/07/12 05:41:26;;;;;;;14.38;10.38;;;;;;;18.06;79.28;97117.04;1821528;77;27406;-87
2021/07/12 05:43:52;;;;;;;16.55;11.00;;;;;;;18.09;79.29;97112.95;1821576;78;25565;-85
2021/07/12 05:46:19;;;;;;;12.60;9.80;;;;;;;18.17;79.32;97110.53;1821459;77;25739;-90
2021/07/12 05:48:45;;;;;;;13.75;10.25;;;;;;;18.21;79.46;97110.83;1821625;78;25668;-86
2021/07/12 05:51:12;;;;;;;11.20;10.10;;;;;;;18.28;79.53;97105.38;1821542;78;25830;-87
2021/07/12 05:53:39;;;;;;;11.55;10.08;;;;;;;18.36;79.44;97110.86;1821601;77;27573;-88
2021/07/12 05:56:05;;;;;;;16.65;10.82;;;;;;;18.43;79.22;97112.00;1821307;78;26355;-88
2021/07/12 05:58:32;;;;;;;11.90;10.32;;;;;;;18.45;79.04;97105.72;1821696;78;26590;-89
2021/07/12 06:00:59;;;;;;;11.75;10.53;;;;;;;18.52;79.02;97103.55;1821710;78;26138;-90
2021/07/12 06:03:25;;;;;;;12.85;10.68;;;;;;;18.58;78.89;97101.14;1821402;78;25787;-90
2021/07/12 06:05:52;;;;;;;14.85;10.55;;;;;;;18.64;78.77;97101.42;1821814;78;27398;-89
2021/07/12 06:08:18;;;;;;;13.08;10.43;;;;;;;18.72;78.55;97107.72;1821279;78;25680;-91
2021/07/12 06:10:45;;;;;;;14.73;9.70;;;;;;;18.78;78.37;97095.71;1821935;77;25819;-89
2021/07/12 06:13:11;;;;;;;12.80;10.23;;;;;;;18.86;78.30;97089.70;1821475;78;25651;-88
2021/07/12 06:15:39;;;;;;;12.68;9.93;;;;;;;18.91;78.44;97082.87;1821784;77;25371;-88
2021/07/12 06:18:13;;;;;;;12.82;10.03;;;;;;;18.95;78.50;97075.78;1821377;77;27613;-88
2021/07/12 06:20:40;;;;;;;14.07;10.63;;;;;;;19.01;78.37;97073.30;1799995;78;26207;-90
2021/07/12 06:23:07;;;;;;;12.30;10.28;;;;;;;19.08;78.37;97076.58;1800522;78;25696;-88
2021/07/12 06:25:34;;;;;;;11.20;9.90;;;;;;;19.19;78.48;97082.08;1820268;78;25411;-88
2021/07/12 06:28:01;;;;;;;12.23;10.32;;;;;;;19.27;78.40;97084.25;1821862;78;25207;-87
2021/07/12 06:30:27;;;;;;;11.88;10.68;;;;;;;19.36;78.31;97086.70;1821468;78;28151;-88
2021/07/12 06:32:54;;;;;;;11.08;9.68;;;;;;;19.45;78.43;97087.78;1821627;78;25712;-86
2021/07/12 06:35:20;;;;;;;12.53;9.85;;;;;;;19.53;78.17;97088.64;1821115;78;25717;-87
2021/07/12 06:37:47;;;;;;;13.43;10.18;;;;;;;19.61;78.06;97080.41;1820214;78;26239;-86
2021/07/12 06:40:15;;;;;;;12.85;11.55;;;;;;;19.70;78.12;97086.40;1821529;78;25711;-86
2021/07/12 06:42:41;;;;;;;11.55;10.23;;;;;;;19.84;78.41;97081.72;1799090;78;27363;-86
2021/07/12 06:45:09;;;;;;;11.55;10.35;;;;;;;19.97;78.70;97084.69;1821646;77;25716;-86
2021/07/12 06:47:35;;;;;;;11.63;10.40;;;;;;;20.14;78.82;97083.81;1821412;77;25736;-88
2021/07/12 06:50:04;;;;;;;17.82;11.00;;;;;;;20.32;79.07;97082.36;1821763;77;26234;-88
2021/07/12 06:52:30;;;;;;;13.40;10.63;;;;;;;20.46;78.89;97083.97;1821444;78;25731;-89
2021/07/12 06:54:57;;;;;;;12.25;10.55;;;;;;;20.58;78.75;97079.52;1821679;78;28050;-89
2021/07/12 06:57:24;;;;;;;12.00;9.90;;;;;;;20.69;78.68;97079.72;1820991;78;25751;-89
2021/07/12 06:59:51;;;;;;;11.43;9.38;;;;;;;20.77;78.20;97090.11;1821775;78;25713;-88
2021/07/12 07:02:18;;;;;;;13.30;9.38;;;;;;;20.86;77.49;97087.03;1821463;78;25832;-92
2021/07/12 07:04:45;;;;;;;14.87;9.30;;;;;;;20.97;77.30;97088.59;1821393;78;25744;-91
2021/07/12 07:07:11;;;;;;;12.13;9.48;;;;;;;21.08;76.89;97090.16;1798597;78;28164;-88
2021/07/12 07:09:38;;;;;;;10.18;9.18;;;;;;;21.20;76.57;97094.76;1821029;77;25993;-90
2021/07/12 07:12:05;;;;;;;12.65;8.88;;;;;;;21.34;76.41;97100.96;1820784;78;25504;-89
2021/07/12 07:14:32;;;;;;;9.70;8.80;;;;;;;21.45;75.78;97102.51;1799607;78;25961;-88
2021/07/12 07:16:58;;;;;;;17.02;9.60;;;;;;;21.51;75.34;97094.48;1821756;77;25694;-87
2021/07/12 07:19:25;;;;;;;9.70;8.75;;;;;;;21.54;75.07;97093.91;1821400;77;27583;-88
2021/07/12 07:21:53;;;;;;;11.78;8.88;;;;;;;21.56;75.15;97097.19;1821558;77;25203;-86
2021/07/12 07:24:21;;;;;;;12.63;9.40;;;;;;;21.60;75.14;97096.88;1821294;77;25219;-88
2021/07/12 07:26:48;;;;;;;10.98;9.15;;;;;;;21.60;74.91;97096.06;1820997;77;25664;-89
2021/07/12 07:29:15;;;;;;;9.85;8.85;;;;;;;21.57;74.84;97102.95;1821697;78;25697;-87
2021/07/12 07:31:43;;;;;;;9.48;8.60;;;;;;;21.56;74.64;97107.63;1821361;78;27578;-88
2021/07/12 07:34:10;;;;;;;10.15;9.08;;;;;;;21.56;74.56;97105.43;1821310;77;25736;-87
2021/07/12 07:36:38;;;;;;;9.53;8.63;;;;;;;21.54;74.90;97099.40;1812815;77;25854;-88
2021/07/12 07:39:06;;;;;;;10.40;8.85;;;;;;;21.52;74.50;97107.10;1812937;79;26534;-89
2021/07/12 07:41:36;;;;;;;10.78;9.03;;;;;;;21.53;74.40;97110.12;1782166;79;25698;-88
2021/07/12 07:44:05;;;;;;;10.65;9.55;;;;;;;21.49;74.78;97109.08;1812794;77;27497;-85
2021/07/12 07:46:33;;;;;;;11.20;10.03;;;;;;;21.40;74.91;97104.73;1783926;79;26014;-86
2021/07/12 07:49:02;;;;;;;11.03;9.33;;;;;;;21.33;75.20;97100.70;1797021;77;25899;-87
2021/07/12 07:51:29;;;;;;;14.90;10.32;;;;;;;21.29;75.46;97101.81;1812851;79;25768;-86
2021/07/12 07:56:20;;;;;;;12.60;9.95;;;;;;;21.31;75.90;97097.41;1873817;75;25721;-86
2021/07/12 07:58:46;;;;;;;12.55;10.23;;;;;;;21.24;76.10;97096.94;1832796;76;25777;-87
2021/07/12 08:01:13;;;;;;;10.48;9.50;;;;;;;21.22;76.12;97095.84;1833536;76;28271;-87
2021/07/12 08:03:40;;;;;;;11.22;9.73;;;;;;;21.23;76.20;97102.16;1817118;77;25729;-87
2021/07/12 08:06:06;;;;;;;9.85;8.98;;;;;;;21.18;76.32;97103.83;1816746;78;25695;-89
2021/07/12 08:08:33;;;;;;;10.85;9.85;;;;;;;21.15;76.54;97113.96;1833534;77;25735;-87
2021/07/12 08:11:00;;;;;;;11.00;9.90;;;;;;;21.13;76.51;97114.80;1804222;76;25814;-88
2021/07/12 08:13:26;;;;;;;11.78;9.53;;;;;;;21.15;76.75;97109.84;1830204;77;28341;-87
2021/07/12 08:15:53;;;;;;;14.70;10.38;;;;;;;21.16;76.89;97108.74;1807945;77;25637;-87
2021/07/12 08:18:20;;;;;;;18.75;10.95;;;;;;;21.18;77.08;97102.97;1793148;77;25684;-87
2021/07/12 08:20:47;;;;;;;11.03;9.93;;;;;;;21.23;77.15;97098.86;1833220;76;26366;-87
2021/07/12 08:23:14;;;;;;;11.03;9.83;;;;;;;21.28;77.10;97101.55;1833390;76;25769;-86
2021/07/12 08:25:41;;;;;;;10.65;9.65;;;;;;;21.35;77.17;97106.72;1833249;77;27443;-86
2021/07/12 08:28:08;;;;;;;12.40;10.15;;;;;;;21.40;77.16;97109.41;1833092;77;25734;-88
2021/07/12 08:30:34;;;;;;;12.28;9.88;;;;;;;21.47;77.07;97123.09;1800381;77;25739;-87
2021/07/12 08:33:01;;;;;;;11.85;10.23;;;;;;;21.53;76.71;97123.84;1833157;76;25916;-89
2021/07/12 08:35:28;;;;;;;11.48;10.10;;;;;;;21.61;76.29;97125.17;1833453;76;25718;-87
2021/07/12 08:37:55;;;;;;;10.03;9.10;;;;;;;21.73;76.07;97126.42;1833133;77;27999;-87
2021/07/12 08:40:24;;;;;;;13.58;9.75;;;;;;;21.86;75.83;97120.22;1828341;77;25990;-87
2021/07/12 08:42:53;;;;;;;13.00;10.75;;;;;;;21.92;75.98;97116.33;1800589;76;25637;-88
2021/07/12 08:45:21;;;;;;;11.05;9.55;;;;;;;21.97;75.98;97125.64;1825561;77;25690;-88
2021/07/12 08:47:48;;;;;;;10.65;9.65;;;;;;;22.02;75.65;97129.72;1815902;77;25733;-88
2021/07/12 08:50:15;;;;;;;9.85;8.93;;;;;;;22.08;75.19;97140.94;1818201;77;27367;-89
2021/07/12 08:52:47;;;;;;;11.83;9.33;;;;;;;22.08;75.19;97140.94;1800429;76;25654;-88
2021/07/12 08:55:14;;;;;;;11.30;9.23;;;;;;;22.11;74.69;97147.20;1833131;77;26291;-91
2021/07/12 08:57:59;;;;;;;11.10;9.70;;;;;;;22.11;74.50;97148.02;1793008;77;25824;-89
2021/07/12 09:00:54;;;;;;;11.57;10.38;;;;;;;22.13;74.36;97147.73;1822043;76;25720;-88
2021/07/12 09:03:34;;;;;;;12.00;10.05;;;;;;;22.10;74.47;97129.89;1833400;77;27443;-87
2021/07/12 09:06:16;;;;;;;14.00;9.70;;;;;;;22.03;74.59;97127.23;1832254;77;25709;-89
2021/07/12 09:08:53;;;;;;;;;;;;;;;22.03;74.70;97134.93;1835755;77;26242;-89
2021/07/12 09:11:25;;;;;;;10.58;9.48;;;;;;;22.07;74.40;97140.12;1799738;77;25796;-92
2021/07/12 09:14:07;;;;;;;12.55;9.03;;;;;;;22.10;74.35;97128.52;1802733;77;25785;-89
2021/07/12 09:16:41;;;;;;;9.63;8.83;;;;;;;22.14;74.20;97119.96;1832899;76;27416;-89
2021/07/12 09:19:22;;;;;;;10.25;9.15;;;;;;;22.21;73.84;97116.88;1832924;76;25767;-91
2021/07/12 09:21:59;;;;;;;10.93;9.48;;;;;;;22.33;73.29;97117.84;1837175;77;25883;-91
2021/07/12 09:24:56;;;;;;;9.65;8.65;;;;;;;22.33;73.29;97117.84;1832861;77;25846;-92
2021/07/12 09:27:29;;;;;;;10.82;9.43;;;;;;;22.40;73.28;97105.36;1832288;77;25781;-87
2021/07/12 09:30:12;;;;;;;10.60;8.78;;;;;;;22.44;72.97;97103.66;1806391;77;27440;-88
2021/07/12 09:32:45;;;;;;;12.23;10.68;;;;;;;22.46;72.96;97112.41;1818797;76;26416;-91
2021/07/12 09:35:15;;;;;;;13.50;11.08;;;;;;;22.44;73.08;97120.17;1830597;77;25719;-90
2021/07/12 09:37:46;;;;;;;15.78;11.65;;;;;;;22.15;73.05;97084.49;1832684;76;25249;-89
2021/07/12 09:40:18;;;;;;;14.33;11.57;;;;;;;22.33;73.09;97126.91;1832916;77;25909;-93
2021/07/12 09:42:51;;;;;;;13.18;10.53;;;;;;;22.28;73.07;97124.20;1832766;77;28233;-89
2021/07/12 09:45:21;;;;;;;14.43;11.18;;;;;;;22.22;72.96;97123.98;1832609;76;25529;-92
2021/07/12 09:47:50;;;;;;;14.55;10.40;;;;;;;22.15;72.86;97129.84;1810685;77;25269;-92
2021/07/12 09:50:25;;;;;;;13.93;10.65;;;;;;;22.09;72.86;97131.59;1813232;76;26167;-88
2021/07/12 09:53:05;;;;;;;12.55;10.32;;;;;;;22.02;72.84;97125.59;1811187;77;25241;-88
2021/07/12 09:55:34;;;;;;;12.03;9.50;;;;;;;21.95;72.89;97131.98;1831483;77;27326;-90
2021/07/12 09:58:20;;;;;;;11.97;8.40;;;;;;;21.91;72.96;97129.80;1830177;77;25765;-90
2021/07/12 10:00:52;;;;;;;11.50;10.30;;;;;;;21.88;72.97;97128.18;1830344;76;25742;-91
2021/07/12 10:03:22;;;;;;;14.05;10.72;;;;;;;21.86;73.07;97144.13;1830516;77;25624;-86
2021/07/12 10:05:51;;;;;;;11.10;9.58;;;;;;;21.79;73.15;97145.86;1830136;76;26296;-91
2021/07/12 10:08:19;;;;;;;10.70;9.43;;;;;;;21.71;73.19;97143.75;1830162;76;27446;-89
2021/07/12 10:10:46;;;;;;;9.98;8.48;;;;;;;21.66;73.25;97138.84;1830223;78;25722;-91
2021/07/12 10:13:13;;;;;;;11.40;8.68;;;;;;;21.60;73.01;97129.02;1830124;77;25832;-88
2021/07/12 10:15:40;;;;;;;10.25;9.10;;;;;;;21.56;73.06;97126.84;1830381;78;25829;-91
2021/07/12 10:18:08;;;;;;;9.95;8.50;;;;;;;21.50;73.07;97119.74;1830082;78;25804;-89
2021/07/12 10:20:36;;;;;;;10.23;8.40;;;;;;;21.45;73.16;97114.87;1825463;77;27380;-88
2021/07/12 10:23:06;;;;;;;9.98;7.35;;;;;;;21.43;73.10;97120.64;1812430;78;25759;-87
2021/07/12 10:31:22;;;;;;;13.70;9.00;;;;;;;21.39;72.83;97133.84;1876329;74;25627;-86
2021/07/12 10:33:49;;;;;;;13.43;9.90;;;;;;;21.30;72.96;97125.41;1822344;77;25664;-89
2021/07/12 10:36:39;;;;;;;13.60;9.53;;;;;;;21.30;73.14;97123.22;1805154;77;28117;-88
2021/07/12 10:39:06;;;;;;;17.50;10.78;;;;;;;21.26;73.14;97130.38;1827150;77;25713;-92
2021/07/12 10:41:39;;;;;;;16.45;10.48;;;;;;;21.24;73.26;97126.58;1827605;77;25194;-93
2021/07/12 10:44:06;;;;;;;12.58;9.83;;;;;;;21.25;73.30;97123.28;1840470;77;25655;-89
2021/07/12 10:46:37;;;;;;;15.68;9.03;;;;;;;21.26;73.27;97126.27;1827403;77;25781;-89
2021/07/12 10:49:36;;;;;;;12.80;9.38;;;;;;;21.27;73.17;97128.73;1827998;78;27473;-90
2021/07/12 10:52:04;;;;;;;10.80;8.73;;;;;;;21.28;73.17;97132.29;1759772;81;25783;-90
2021/07/12 10:54:36;;;;;;;14.03;9.68;;;;;;;21.28;73.23;97142.72;1760143;81;26118;-91
2021/07/12 10:57:04;;;;;;;12.70;9.53;;;;;;;21.23;73.23;97135.09;1749258;81;25835;-90
2021/07/12 10:59:33;;;;;;;11.90;8.80;;;;;;;21.19;73.31;97128.80;1757324;81;25772;-92
2021/07/12 11:02:05;;;;;;;12.95;9.58;;;;;;;21.16;73.41;97127.95;1737352;80;28414;-94
2021/07/12 11:04:42;;;;;;;10.30;9.28;;;;;;;21.16;73.44;97132.07;1747975;81;25810;-88
2021/07/12 11:08:57;;;;;;;10.75;9.03;;;;;;;21.25;73.57;97115.87;1864003;76;25554;-91
2021/07/12 11:11:29;;;;;;;10.85;8.80;;;;;;;21.19;73.61;97117.81;1815747;77;25708;-89
2021/07/12 11:16:47;;;;;;;12.85;8.90;;;;;;;21.24;73.10;97116.97;1833571;74;25120;-89
2021/07/12 11:19:28;;;;;;;12.47;8.90;;;;;;;21.17;73.16;97121.91;1818450;77;26403;-90
2021/07/12 11:22:18;;;;;;;12.68;10.35;;;;;;;21.15;73.20;97131.80;1811662;76;28267;-90
2021/07/12 11:25:03;;;;;;;10.40;9.33;;;;;;;21.12;73.27;97132.95;1844753;77;25683;-89
2021/07/12 11:29:35;;;;;;;11.33;9.93;;;;;;;21.08;73.30;97136.80;1873550;74;25702;-89
2021/07/12 11:32:08;;;;;;;9.73;8.83;;;;;;;20.98;73.39;97134.13;1795474;76;25783;-87
2021/07/12 11:34:39;;;;;;;10.25;9.25;;;;;;;20.97;73.31;97133.86;1808387;76;28091;-87
2021/07/12 11:37:09;;;;;;;11.78;10.13;;;;;;;20.93;73.38;97128.67;1833236;77;25769;-88
2021/07/12 11:39:43;;;;;;;10.40;8.70;;;;;;;20.90;73.47;97133.89;1833012;77;25778;-87
2021/07/12 11:42:35;;;;;;;12.90;8.80;;;;;;;20.89;73.34;97141.88;1833295;77;25837;-85
2021/07/12 11:45:10;;;;;;;11.30;10.00;;;;;;;20.85;73.21;97148.48;1815818;76;25686;-84
2021/07/12 11:47:52;;;;;;;15.80;10.45;;;;;;;20.75;73.41;97160.34;1821414;77;27437;-87
2021/07/12 11:50:24;;;;;;;17.45;11.57;;;;;;;20.71;73.65;97170.77;1833253;77;25765;-85
2021/07/12 11:52:54;;;;;;;15.65;11.43;;;;;;;20.66;73.93;97163.92;1828684;76;25795;-89
2021/07/12 11:55:31;;;;;;;16.40;11.95;;;;;;;20.61;74.27;97148.88;1796543;77;26280;-81
2021/07/12 11:58:02;;;;;;;16.93;12.65;;;;;;;20.44;74.45;97150.04;1786482;78;25672;-84
2021/07/12 12:00:40;;;;;;;18.73;13.30;;;;;;;20.30;74.95;97154.99;1819230;77;28417;-81